Sea Malinhead, Ireland
Current Conditions -  °F | °C
As of 6:50 AM on Sunday 26 Oct 2014 (Local Time) from EGPI Reporting Station
Scattered Clouds Scattered Clouds  
Wind Chill: 54°   Ceiling: Unl
Heat Index: 54°   Visibility: 6mi
Dew Point: 48°   Wind: 24mph
Humidity: 82%   Direction: 210°SSW
Pressure: 29.65"   Gusts: NA
Location:  55.5°N, 7.5°W
Report Text: EGPI 260550Z AUTO 21021KT 170V230 9999 SCT034/// 12/09 Q1004 RERA
Loading
Personal Weather Stations






























Interactive Weather Map
Tropical Storm Tracking
New forecast layout! Learn more

10-Day Weather Forecast

Advertisements
Track Severe Weather on mobile